<?xml version='1.0' encoding='UTF-8'?>
<gpx xmlns="http://www.topografix.com/GPX/1/1" creator="www.balnam.be" version="1.1" xmlns:xsi="http://www.w3.org/2001/XMLSchema-instance" xsi:schemaLocation="http://www.topografix.com/GPX/1/1 http://www.topografix.com/GPX/1/1/gpx.xsd">
<trk>
<name>lpbsn1</name>
<cmt>r</cmt>
<desc>Sippenaeken Chemin n°1 Rue de Beusdael</desc>
<link href="https://chemins.be/sippenaeken/chemin/1"/><trkseg>
<trkpt lat="50.745894" lon="5.895778"><time>2026-05-06T21:06:29Z</time></trkpt>
<trkpt lat="50.747967" lon="5.900255"><time>2026-05-06T21:16:29Z</time></trkpt>
<trkpt lat="50.750742" lon="5.904019"><time>2026-05-06T21:26:29Z</time></trkpt>
<trkpt lat="50.750638" lon="5.904570"><time>2026-05-06T21:36:29Z</time></trkpt>
</trkseg></trk>
<trk>
<name>lpbsn1</name>
<cmt>s</cmt>
<desc>Sippenaeken Chemin n°1 Rue de Beusdael</desc>
<link href="https://chemins.be/sippenaeken/chemin/1"/><trkseg>
<trkpt lat="50.750638" lon="5.904570"><time>2026-05-06T21:36:29Z</time></trkpt>
<trkpt lat="50.749317" lon="5.905994"><time>2026-05-06T21:46:29Z</time></trkpt>
<trkpt lat="50.749335" lon="5.907281"><time>2026-05-06T21:56:29Z</time></trkpt>
</trkseg></trk>
<trk>
<name>lpbsn1</name>
<cmt>r</cmt>
<desc>Sippenaeken Chemin n°1 Rue de Beusdael</desc>
<link href="https://chemins.be/sippenaeken/chemin/1"/><trkseg>
<trkpt lat="50.749335" lon="5.907281"><time>2026-05-06T21:56:29Z</time></trkpt>
<trkpt lat="50.749783" lon="5.908990"><time>2026-05-06T22:06:29Z</time></trkpt>
<trkpt lat="50.750311" lon="5.915033"><time>2026-05-06T22:16:29Z</time></trkpt>
<trkpt lat="50.750670" lon="5.917417"><time>2026-05-06T22:26:29Z</time></trkpt>
<trkpt lat="50.750963" lon="5.918509"><time>2026-05-06T22:36:29Z</time></trkpt>
</trkseg></trk>
<trk>
<name>lpbsn1</name>
<cmt>b</cmt>
<desc>Sippenaeken Chemin n°1 Rue de Beusdael</desc>
<link href="https://chemins.be/sippenaeken/chemin/1"/><trkseg>
<trkpt lat="50.750963" lon="5.918509"><time>2026-05-06T22:36:29Z</time></trkpt>
<trkpt lat="50.751163" lon="5.919132"><time>2026-05-06T22:46:29Z</time></trkpt>
<trkpt lat="50.751491" lon="5.920525"><time>2026-05-06T22:56:29Z</time></trkpt>
<trkpt lat="50.751416" lon="5.921076"><time>2026-05-06T23:06:29Z</time></trkpt>
<trkpt lat="50.751299" lon="5.921473"><time>2026-05-06T23:16:29Z</time></trkpt>
<trkpt lat="50.751237" lon="5.921651"><time>2026-05-06T23:26:29Z</time></trkpt>
<trkpt lat="50.751075" lon="5.922011"><time>2026-05-06T23:36:29Z</time></trkpt>
</trkseg></trk>
<trk>
<name>lpbsn1</name>
<cmt>r</cmt>
<desc>Sippenaeken Chemin n°1 Rue de Beusdael</desc>
<link href="https://chemins.be/sippenaeken/chemin/1"/><trkseg>
<trkpt lat="50.751075" lon="5.922011"><time>2026-05-06T23:36:29Z</time></trkpt>
<trkpt lat="50.751201" lon="5.922705"><time>2026-05-06T23:46:29Z</time></trkpt>
<trkpt lat="50.751985" lon="5.925804"><time>2026-05-06T23:56:29Z</time></trkpt>
<trkpt lat="50.751551" lon="5.928622"><time>2026-05-07T00:06:29Z</time></trkpt>
<trkpt lat="50.751850" lon="5.929652"><time>2026-05-07T00:16:29Z</time></trkpt>
<trkpt lat="50.751678" lon="5.931355"><time>2026-05-07T00:26:29Z</time></trkpt>
<trkpt lat="50.750791" lon="5.933615"><time>2026-05-07T00:36:29Z</time></trkpt>
<trkpt lat="50.750647" lon="5.934933"><time>2026-05-07T00:46:29Z</time></trkpt>
</trkseg></trk>
<trk>
<name>lpbsn1</name>
<cmt>s</cmt>
<desc>Sippenaeken Chemin n°1 Rue de Beusdael</desc>
<link href="https://chemins.be/sippenaeken/chemin/1"/><trkseg>
<trkpt lat="50.750647" lon="5.934933"><time>2026-05-07T00:46:29Z</time></trkpt>
<trkpt lat="50.750589" lon="5.935726"><time>2026-05-07T00:56:29Z</time></trkpt>
<trkpt lat="50.751144" lon="5.937983"><time>2026-05-07T01:06:29Z</time></trkpt>
<trkpt lat="50.751577" lon="5.938337"><time>2026-05-07T01:16:29Z</time></trkpt>
<trkpt lat="50.751908" lon="5.938756"><time>2026-05-07T01:26:29Z</time></trkpt>
<trkpt lat="50.751877" lon="5.939900"><time>2026-05-07T01:36:29Z</time></trkpt>
</trkseg>
</trk>
</gpx>